createdAt,value
2019-02-27T00:01:25.044Z,3.93
2019-02-27T00:03:52.521Z,5.00
2019-02-27T00:06:20.003Z,4.17
2019-02-27T00:08:47.537Z,4.80
2019-02-27T00:11:15.150Z,4.60
2019-02-27T00:13:42.609Z,4.53
2019-02-27T00:16:11.125Z,4.50
2019-02-27T00:18:38.985Z,4.70
2019-02-27T00:21:10.024Z,4.77
2019-02-27T00:23:35.637Z,4.50
2019-02-27T00:26:03.183Z,4.60
2019-02-27T00:28:30.533Z,4.57
2019-02-27T00:30:57.894Z,5.00
2019-02-27T00:33:26.258Z,4.13
2019-02-27T00:35:54.579Z,4.67
2019-02-27T00:38:22.778Z,4.57
2019-02-27T00:40:51.398Z,4.07
2019-02-27T00:43:18.887Z,5.03
2019-02-27T00:45:46.329Z,4.73
2019-02-27T00:48:13.815Z,4.20
2019-02-27T00:50:41.485Z,6.20
2019-02-27T00:53:08.986Z,4.63
2019-02-27T00:55:39.307Z,5.10
2019-02-27T00:58:05.915Z,4.00
2019-02-27T01:00:33.307Z,4.33
2019-02-27T01:03:00.702Z,4.40
2019-02-27T01:05:28.333Z,5.40
2019-02-27T01:07:55.675Z,5.60
2019-02-27T01:10:23.147Z,5.53
2019-02-27T01:12:51.019Z,4.87
2019-02-27T01:15:18.459Z,4.53
2019-02-27T01:17:45.934Z,4.73
2019-02-27T01:20:13.585Z,4.70
2019-02-27T01:22:41.078Z,5.00
2019-02-27T01:25:08.661Z,4.70
2019-02-27T01:27:38.169Z,4.70
2019-02-27T01:30:06.559Z,4.87
2019-02-27T01:32:33.967Z,4.33
2019-02-27T01:35:01.338Z,5.57
2019-02-27T01:37:31.618Z,3.97
2019-02-27T01:39:58.178Z,4.83
2019-02-27T01:42:25.544Z,4.27
2019-02-27T01:44:52.893Z,4.33
2019-02-27T01:47:20.255Z,3.70
2019-02-27T01:49:49.188Z,4.07
2019-02-27T01:52:16.946Z,4.20
2019-02-27T01:54:46.067Z,4.53
2019-02-27T01:57:13.598Z,4.10
2019-02-27T01:59:41.076Z,3.87
2019-02-27T02:02:08.572Z,4.17
2019-02-27T02:04:36.088Z,5.33
2019-02-27T02:07:04.071Z,3.90
2019-02-27T02:09:34.200Z,3.43
2019-02-27T02:12:07.674Z,3.63
2019-02-27T02:15:16.332Z,3.33
2019-02-27T02:18:24.122Z,4.83
2019-02-27T02:21:16.470Z,4.60
2019-02-27T02:24:30.570Z,4.60
2019-02-27T02:27:58.027Z,3.73
2019-02-27T02:30:50.067Z,3.10
2019-02-27T02:33:42.330Z,3.33
2019-02-27T02:36:47.380Z,3.13
2019-02-27T02:39:47.005Z,2.87
2019-02-27T02:43:04.736Z,3.83
2019-02-27T02:46:08.849Z,3.97
2019-02-27T02:49:10.176Z,3.97
2019-02-27T02:51:51.708Z,2.93
2019-02-27T02:54:53.115Z,3.43
2019-02-27T02:58:11.371Z,3.43
2019-02-27T03:01:19.386Z,3.43
2019-02-27T03:04:03.032Z,3.20
2019-02-27T03:06:53.573Z,3.20
2019-02-27T03:10:18.306Z,3.17
2019-02-27T03:13:41.588Z,2.80
2019-02-27T03:16:13.389Z,3.20
2019-02-27T03:19:08.539Z,3.60
2019-02-27T03:22:10.613Z,2.97
2019-02-27T03:25:41.945Z,3.30
2019-02-27T03:28:51.821Z,3.00
2019-02-27T03:31:57.841Z,2.67
2019-02-27T03:35:15.160Z,2.80
2019-02-27T03:38:36.587Z,3.07
2019-02-27T03:41:49.347Z,3.77
2019-02-27T03:44:26.601Z,3.57
2019-02-27T03:47:16.610Z,3.10
2019-02-27T03:49:59.085Z,3.03
2019-02-27T03:52:51.057Z,4.10
2019-02-27T03:56:08.602Z,2.87
2019-02-27T03:59:13.548Z,2.70
2019-02-27T04:02:19.144Z,4.20
2019-02-27T04:05:17.923Z,2.73
2019-02-27T04:08:26.079Z,3.63
2019-02-27T04:10:53.564Z,2.57
2019-02-27T04:13:26.405Z,3.37
2019-02-27T04:15:53.343Z,2.47
2019-02-27T04:18:18.815Z,3.73
2019-02-27T04:20:50.719Z,3.57
2019-02-27T04:23:16.265Z,3.07
2019-02-27T04:25:43.743Z,2.73
2019-02-27T04:28:11.147Z,2.83
2019-02-27T04:30:38.615Z,3.00
2019-02-27T04:33:06.119Z,3.00
2019-02-27T04:35:34.323Z,2.80
2019-02-27T04:38:01.793Z,3.93
2019-02-27T04:40:29.234Z,3.03
2019-02-27T04:42:57.045Z,3.30
2019-02-27T04:45:26.188Z,3.27
2019-02-27T04:47:53.506Z,3.53
2019-02-27T04:50:21.003Z,2.90
2019-02-27T04:52:48.392Z,3.83
2019-02-27T04:55:16.266Z,5.03
2019-02-27T04:57:43.780Z,2.93
2019-02-27T05:00:11.034Z,2.80
2019-02-27T05:02:38.518Z,3.03
2019-02-27T05:05:06.199Z,3.23
2019-02-27T05:07:35.139Z,3.40
2019-02-27T05:10:06.849Z,3.00
2019-02-27T05:12:31.910Z,3.27
2019-02-27T05:15:00.831Z,2.77
2019-02-27T05:17:28.630Z,3.20
2019-02-27T05:19:56.139Z,3.73
2019-02-27T05:22:26.217Z,3.60
2019-02-27T05:24:52.762Z,3.10
2019-02-27T05:27:20.148Z,4.00
2019-02-27T05:29:47.528Z,3.93
2019-02-27T05:32:15.035Z,3.37
2019-02-27T05:34:42.416Z,3.30
2019-02-27T05:37:09.985Z,3.73
2019-02-27T05:39:37.458Z,4.70
2019-02-27T05:42:06.429Z,3.10
2019-02-27T05:44:37.166Z,3.87
2019-02-27T05:47:08.668Z,3.23
2019-02-27T05:49:36.687Z,4.00
2019-02-27T05:52:03.889Z,4.67
2019-02-27T05:54:32.289Z,7.63
2019-02-27T05:57:00.355Z,5.07
2019-02-27T05:59:29.322Z,4.93
2019-02-27T06:01:57.291Z,4.40
2019-02-27T06:04:25.108Z,5.33
2019-02-27T06:06:53.141Z,4.07
2019-02-27T06:09:20.459Z,4.83
2019-02-27T06:11:47.923Z,3.70
2019-02-27T06:14:15.369Z,4.37
2019-02-27T06:16:43.067Z,5.33
2019-02-27T06:20:07.992Z,4.90
2019-02-27T06:22:55.145Z,5.43
2019-02-27T06:25:23.957Z,4.63
2019-02-27T06:27:51.465Z,4.53
2019-02-27T06:30:18.851Z,4.40
2019-02-27T06:32:46.191Z,5.60
2019-02-27T06:35:13.997Z,6.30
2019-02-27T06:37:41.479Z,5.20
2019-02-27T06:40:10.950Z,6.17
2019-02-27T06:42:38.745Z,5.27
2019-02-27T06:45:10.253Z,6.03
2019-02-27T06:47:37.407Z,4.40
2019-02-27T06:50:05.665Z,4.73
2019-02-27T06:52:33.135Z,5.90
2019-02-27T06:55:00.581Z,5.60
2019-02-27T06:57:28.157Z,4.97
2019-02-27T06:59:57.518Z,6.77
2019-02-27T07:02:24.681Z,4.97
2019-02-27T07:04:52.138Z,6.53
2019-02-27T07:07:42.246Z,4.90
2019-02-27T07:10:10.776Z,6.73
2019-02-27T07:12:38.139Z,4.93
2019-02-27T07:15:07.078Z,4.97
2019-02-27T07:17:34.636Z,4.50
2019-02-27T07:20:02.184Z,5.57
2019-02-27T07:22:29.731Z,6.43
2019-02-27T07:24:57.128Z,5.03
2019-02-27T07:27:24.654Z,4.47
2019-02-27T07:29:53.245Z,5.03
2019-02-27T07:32:20.559Z,5.20
2019-02-27T07:34:49.797Z,5.27
2019-02-27T07:37:17.372Z,5.77
2019-02-27T07:39:45.016Z,5.03
2019-02-27T07:42:12.373Z,4.07
2019-02-27T07:44:39.900Z,3.67
2019-02-27T07:47:07.218Z,4.17
2019-02-27T07:49:34.880Z,3.90
2019-02-27T07:52:02.372Z,4.23
2019-02-27T07:54:30.072Z,5.00
2019-02-27T07:56:57.676Z,4.70
2019-02-27T07:59:25.523Z,5.20
2019-02-27T08:01:53.250Z,6.00
2019-02-27T08:04:22.970Z,6.17
2019-02-27T08:06:50.368Z,5.43
2019-02-27T08:09:18.212Z,6.23
2019-02-27T08:11:47.342Z,5.90
2019-02-27T08:14:15.498Z,5.50
2019-02-27T08:16:43.149Z,4.20
2019-02-27T08:19:11.574Z,6.10
2019-02-27T08:21:39.888Z,4.00
2019-02-27T08:24:07.669Z,4.83
2019-02-27T08:26:36.417Z,5.30
2019-02-27T08:29:05.316Z,5.03
2019-02-27T08:31:32.852Z,6.30
2019-02-27T08:34:00.363Z,4.90
2019-02-27T08:36:27.796Z,6.10
2019-02-27T08:38:55.120Z,5.33
2019-02-27T08:41:22.578Z,5.07
2019-02-27T08:43:49.996Z,6.03
2019-02-27T08:46:17.452Z,6.10
2019-02-27T08:48:44.852Z,6.10
2019-02-27T08:51:12.406Z,7.33
2019-02-27T08:53:39.854Z,6.30
2019-02-27T08:56:09.986Z,7.03
2019-02-27T08:58:36.558Z,7.13
2019-02-27T09:01:14.344Z,6.63
2019-02-27T09:03:41.782Z,7.67
2019-02-27T09:06:09.338Z,7.30
2019-02-27T09:08:36.827Z,7.70
2019-02-27T09:11:06.577Z,7.53
2019-02-27T09:13:33.547Z,6.83
2019-02-27T09:16:01.078Z,7.70
2019-02-27T09:18:28.648Z,7.83
2019-02-27T09:20:56.144Z,9.33
2019-02-27T09:23:23.590Z,7.27
2019-02-27T09:25:57.015Z,8.10
2019-02-27T09:28:20.361Z,8.67
2019-02-27T09:30:47.733Z,8.17
2019-02-27T09:33:17.043Z,8.03
2019-02-27T09:35:44.499Z,7.33
2019-02-27T09:38:11.953Z,8.17
2019-02-27T09:40:39.660Z,9.63
2019-02-27T09:43:07.275Z,7.07
2019-02-27T09:45:35.289Z,7.37
2019-02-27T09:48:03.405Z,7.57
2019-02-27T09:50:33.306Z,8.07
2019-02-27T09:53:03.270Z,7.63
2019-02-27T09:55:32.521Z,8.50
2019-02-27T09:58:00.259Z,8.40
2019-02-27T10:00:30.321Z,7.57
2019-02-27T10:02:58.325Z,7.90
2019-02-27T10:05:25.822Z,7.50
2019-02-27T10:07:53.213Z,8.10
2019-02-27T10:10:20.701Z,8.30
2019-02-27T10:12:48.142Z,9.30
2019-02-27T10:15:15.624Z,14.03
2019-02-27T10:17:43.652Z,6.23
2019-02-27T10:20:11.751Z,7.30
2019-02-27T10:22:39.190Z,9.63
2019-02-27T10:25:08.589Z,10.90
2019-02-27T10:27:38.709Z,8.10
2019-02-27T10:30:11.563Z,9.47
2019-02-27T10:32:36.618Z,7.60
2019-02-27T10:35:05.005Z,8.77
2019-02-27T10:37:32.561Z,8.60
2019-02-27T10:40:00.245Z,7.53
2019-02-27T10:42:27.808Z,7.50
2019-02-27T10:44:55.274Z,8.43
2019-02-27T10:47:22.678Z,8.43
2019-02-27T10:49:50.212Z,9.40
2019-02-27T10:52:17.694Z,7.20
2019-02-27T10:54:45.157Z,7.40
2019-02-27T10:57:13.409Z,6.40
2019-02-27T10:59:40.891Z,6.63
2019-02-27T11:02:09.743Z,7.90
2019-02-27T11:04:38.929Z,7.97
2019-02-27T11:07:06.912Z,7.07
2019-02-27T11:09:34.372Z,7.00
2019-02-27T11:12:01.831Z,8.40
2019-02-27T11:14:31.779Z,7.20
2019-02-27T11:17:02.015Z,7.30
2019-02-27T11:19:27.693Z,8.03
2019-02-27T11:21:57.757Z,7.07
2019-02-27T11:24:24.806Z,7.87
2019-02-27T11:26:52.258Z,7.13
2019-02-27T11:29:23.564Z,8.77
2019-02-27T11:31:48.958Z,7.73
2019-02-27T11:34:16.418Z,7.67
2019-02-27T11:36:43.918Z,7.57
2019-02-27T11:39:11.765Z,8.27
2019-02-27T11:41:39.289Z,7.30
2019-02-27T11:44:06.647Z,7.10
2019-02-27T11:46:35.167Z,7.50
2019-02-27T11:49:03.766Z,7.87
2019-02-27T11:51:31.287Z,7.90
2019-02-27T11:53:58.753Z,7.50
2019-02-27T11:56:26.211Z,6.93
2019-02-27T11:58:53.569Z,7.37
2019-02-27T12:01:22.022Z,7.63
2019-02-27T12:03:50.266Z,8.10
2019-02-27T12:06:17.810Z,6.63
2019-02-27T12:08:45.527Z,7.10
2019-02-27T12:11:14.176Z,7.90
2019-02-27T12:13:41.955Z,6.70
2019-02-27T12:16:10.690Z,7.07
2019-02-27T12:18:38.559Z,7.07
2019-02-27T12:21:06.901Z,7.20
2019-02-27T12:23:34.595Z,6.77
2019-02-27T12:26:02.457Z,6.73
2019-02-27T12:28:30.808Z,7.17
2019-02-27T12:30:59.471Z,5.90
2019-02-27T12:33:29.173Z,6.73
2019-02-27T12:35:56.127Z,7.87
2019-02-27T12:38:23.571Z,6.90
2019-02-27T12:40:51.167Z,7.47
2019-02-27T12:43:18.821Z,6.90
2019-02-27T12:45:46.550Z,8.93
2019-02-27T12:48:13.951Z,7.17
2019-02-27T12:50:41.399Z,9.03
2019-02-27T12:53:08.929Z,7.47
2019-02-27T12:55:38.105Z,6.73
2019-02-27T12:58:05.928Z,7.20
2019-02-27T13:00:33.728Z,6.50
2019-02-27T13:03:08.343Z,10.87
2019-02-27T13:05:33.487Z,6.77
2019-02-27T13:08:01.287Z,6.70
2019-02-27T13:10:34.163Z,6.53
2019-02-27T13:12:59.175Z,6.53
2019-02-27T13:15:26.642Z,7.53
2019-02-27T13:17:57.391Z,8.60
2019-02-27T13:20:27.219Z,8.00
2019-02-27T13:22:57.867Z,7.60
2019-02-27T13:25:25.419Z,8.33
2019-02-27T13:27:53.068Z,7.90
2019-02-27T13:30:20.511Z,6.97
2019-02-27T13:32:48.387Z,7.40
2019-02-27T13:35:16.093Z,6.70
2019-02-27T13:37:49.179Z,6.67
2019-02-27T13:40:18.960Z,6.63
2019-02-27T13:42:52.301Z,6.73
2019-02-27T13:45:18.951Z,6.60
2019-02-27T13:47:46.438Z,7.00
2019-02-27T13:50:16.752Z,6.63
2019-02-27T13:52:50.615Z,6.87
2019-02-27T13:55:18.151Z,6.67
2019-02-27T13:57:45.807Z,8.33
2019-02-27T14:00:21.604Z,7.07
2019-02-27T14:02:49.156Z,6.67
2019-02-27T14:05:16.691Z,6.87
2019-02-27T14:07:44.095Z,6.87
2019-02-27T14:10:16.675Z,7.97
2019-02-27T14:12:41.578Z,6.53
2019-02-27T14:15:10.211Z,6.63
2019-02-27T14:17:41.390Z,7.10
2019-02-27T14:20:09.515Z,8.27
2019-02-27T14:22:40.383Z,6.60
2019-02-27T14:25:07.339Z,6.27
2019-02-27T14:27:34.793Z,7.07
2019-02-27T14:30:03.786Z,6.97
2019-02-27T14:32:31.304Z,7.53
2019-02-27T14:35:01.508Z,7.33
2019-02-27T14:37:29.553Z,6.20
2019-02-27T14:39:56.982Z,5.50
2019-02-27T14:42:24.372Z,6.97
2019-02-27T14:44:51.788Z,6.67
2019-02-27T14:47:19.263Z,6.53
2019-02-27T14:49:46.593Z,5.97
2019-02-27T14:52:14.826Z,7.20
2019-02-27T14:54:42.367Z,6.93
2019-02-27T14:57:09.894Z,7.07
2019-02-27T14:59:37.247Z,7.20
2019-02-27T15:02:05.960Z,8.77
2019-02-27T15:04:33.447Z,7.57
2019-02-27T15:07:00.975Z,7.27
2019-02-27T15:09:28.503Z,8.30
2019-02-27T15:11:56.058Z,6.30
2019-02-27T15:14:23.596Z,8.03
2019-02-27T15:16:52.162Z,6.67
2019-02-27T15:19:19.616Z,6.67
2019-02-27T15:21:47.368Z,6.13
2019-02-27T15:24:14.796Z,6.67
2019-02-27T15:26:50.661Z,10.00
2019-02-27T15:29:17.876Z,6.03
2019-02-27T15:31:46.336Z,6.27
2019-02-27T15:34:13.857Z,6.20
2019-02-27T15:36:41.355Z,11.23
2019-02-27T15:39:08.840Z,6.20
2019-02-27T15:41:37.116Z,7.33
2019-02-27T15:44:04.883Z,7.47
2019-02-27T15:46:32.358Z,6.43
2019-02-27T15:49:00.407Z,5.53
2019-02-27T15:51:31.920Z,6.97
2019-02-27T15:53:57.027Z,5.97
2019-02-27T15:56:24.381Z,6.03
2019-02-27T15:58:52.347Z,6.57
2019-02-27T16:01:19.614Z,6.53
2019-02-27T16:03:46.965Z,7.63
2019-02-27T16:06:14.417Z,6.83
2019-02-27T16:08:41.836Z,6.13
2019-02-27T16:11:09.310Z,6.57
2019-02-27T16:13:36.782Z,6.00
2019-02-27T16:16:04.994Z,7.20
2019-02-27T16:18:33.936Z,7.23
2019-02-27T16:21:01.724Z,6.47
2019-02-27T16:23:29.200Z,7.43
2019-02-27T16:25:57.538Z,6.00
2019-02-27T16:28:24.921Z,6.40
2019-02-27T16:30:52.368Z,5.67
2019-02-27T16:33:24.065Z,7.10
2019-02-27T16:35:49.174Z,6.90
2019-02-27T16:38:16.599Z,5.83
2019-02-27T16:40:44.131Z,5.73
2019-02-27T16:43:13.479Z,5.60
2019-02-27T16:45:40.869Z,6.50
2019-02-27T16:48:08.368Z,6.37
2019-02-27T16:50:35.734Z,6.33
2019-02-27T16:53:03.137Z,6.53
2019-02-27T16:55:35.710Z,6.43
2019-02-27T16:58:02.038Z,6.77
2019-02-27T17:00:32.310Z,6.23
2019-02-27T17:02:59.798Z,6.20
2019-02-27T17:05:28.206Z,9.00
2019-02-27T17:08:00.545Z,6.93
2019-02-27T17:10:29.487Z,6.70
2019-02-27T17:12:57.107Z,6.10
2019-02-27T17:15:24.681Z,6.90
2019-02-27T17:17:53.231Z,6.20
2019-02-27T17:20:24.079Z,6.70
2019-02-27T17:22:52.779Z,6.60
2019-02-27T17:25:20.206Z,7.20
2019-02-27T17:27:50.850Z,7.40
2019-02-27T17:30:24.393Z,6.30
2019-02-27T17:32:51.920Z,7.23
2019-02-27T17:35:20.485Z,7.13
2019-02-27T17:37:50.036Z,6.63
2019-02-27T17:40:18.820Z,7.80
2019-02-27T17:42:46.350Z,9.53
2019-02-27T17:45:15.964Z,6.47
2019-02-27T17:47:43.353Z,7.60
2019-02-27T17:50:10.761Z,7.93
2019-02-27T17:52:38.201Z,8.77
2019-02-27T17:55:06.826Z,8.73
2019-02-27T17:57:34.773Z,7.80
2019-02-27T18:00:02.122Z,8.83
2019-02-27T18:02:30.139Z,8.40
2019-02-27T18:04:58.741Z,7.20
2019-02-27T18:07:34.198Z,8.47
2019-02-27T18:10:14.910Z,7.83
2019-02-27T18:12:42.347Z,12.47
2019-02-27T18:15:11.618Z,9.57
2019-02-27T18:17:38.928Z,12.07
2019-02-27T18:20:06.945Z,12.87
2019-02-27T18:22:34.337Z,13.73
2019-02-27T18:25:04.754Z,11.60
2019-02-27T18:27:31.010Z,12.47
2019-02-27T18:29:58.516Z,13.63
2019-02-27T18:32:31.729Z,10.43
2019-02-27T18:34:59.481Z,10.63
2019-02-27T18:37:26.989Z,9.83
2019-02-27T18:39:54.487Z,9.87
2019-02-27T18:42:22.057Z,12.37
2019-02-27T18:44:50.336Z,13.90
2019-02-27T18:47:20.277Z,10.77
2019-02-27T18:49:49.091Z,12.93
2019-02-27T18:52:21.483Z,11.67
2019-02-27T18:54:46.700Z,10.93
2019-02-27T18:57:14.154Z,11.93
2019-02-27T18:59:41.629Z,15.87
2019-02-27T19:02:09.207Z,10.17
2019-02-27T19:04:55.923Z,12.20
2019-02-27T19:07:33.989Z,12.83
2019-02-27T19:10:03.731Z,17.27
2019-02-27T19:12:32.139Z,18.20
2019-02-27T19:15:00.115Z,15.87
2019-02-27T19:17:33.093Z,15.07
2019-02-27T19:20:01.159Z,13.87
2019-02-27T19:22:34.825Z,14.90
2019-02-27T19:25:07.057Z,12.93
2019-02-27T19:27:37.560Z,12.43
2019-02-27T19:30:07.668Z,13.27
2019-02-27T19:32:48.450Z,11.47
2019-02-27T19:35:21.149Z,12.83
2019-02-27T19:37:47.410Z,12.53
2019-02-27T19:40:19.454Z,11.33
2019-02-27T19:42:49.266Z,12.13
2019-02-27T19:45:59.268Z,13.30
2019-02-27T19:48:28.978Z,13.37
2019-02-27T19:50:56.593Z,12.80
2019-02-27T19:53:24.866Z,12.17
2019-02-27T19:56:12.715Z,11.93
2019-02-27T19:59:16.897Z,12.43
2019-02-27T20:01:49.054Z,15.07
2019-02-27T20:04:43.637Z,13.20
2019-02-27T20:07:14.274Z,13.77
2019-02-27T20:10:09.230Z,12.03
2019-02-27T20:12:47.804Z,13.93
2019-02-27T20:15:35.143Z,9.93
2019-02-27T20:18:08.320Z,12.67
2019-02-27T20:20:40.003Z,10.03
2019-02-27T20:23:04.392Z,10.90
2019-02-27T20:25:33.174Z,11.60
2019-02-27T20:28:01.022Z,8.67
2019-02-27T20:30:28.508Z,8.87
2019-02-27T20:32:59.881Z,9.70
2019-02-27T20:35:26.242Z,7.67
2019-02-27T20:37:53.764Z,7.13
2019-02-27T20:40:21.428Z,7.20
2019-02-27T20:42:50.376Z,8.13
2019-02-27T20:45:18.254Z,8.20
2019-02-27T20:47:46.119Z,7.57
2019-02-27T20:50:34.574Z,7.17
2019-02-27T20:56:12.617Z,6.63
2019-02-27T21:01:51.256Z,9.67
2019-02-27T21:04:19.612Z,7.90
2019-02-27T21:06:53.287Z,7.20
2019-02-27T21:09:21.595Z,7.23
2019-02-27T21:11:50.252Z,6.63
2019-02-27T21:14:20.533Z,6.40
2019-02-27T21:16:48.096Z,6.43
2019-02-27T21:19:18.999Z,6.27
2019-02-27T21:21:47.060Z,7.50
2019-02-27T21:24:14.660Z,5.67
2019-02-27T21:26:43.890Z,5.47
2019-02-27T21:29:13.460Z,5.53
2019-02-27T21:31:51.031Z,6.20
2019-02-27T21:34:20.102Z,6.33
2019-02-27T21:36:55.859Z,5.83
2019-02-27T21:39:51.885Z,6.33
2019-02-27T21:42:44.789Z,5.43
2019-02-27T21:45:15.543Z,6.30
2019-02-27T21:47:51.086Z,5.50
2019-02-27T21:50:25.468Z,5.13
2019-02-27T21:53:04.259Z,6.07
2019-02-27T21:55:31.972Z,5.93
2019-02-27T21:57:59.601Z,4.63
2019-02-27T22:00:49.191Z,5.43
2019-02-27T22:03:24.627Z,5.10
2019-02-27T22:05:53.754Z,6.00
2019-02-27T22:08:22.282Z,5.27
2019-02-27T22:10:53.126Z,5.57
2019-02-27T22:13:28.976Z,4.73
2019-02-27T22:15:56.661Z,5.13
2019-02-27T22:18:23.463Z,5.07
2019-02-27T22:20:59.495Z,4.07
2019-02-27T22:23:57.429Z,5.13
2019-02-27T22:26:25.173Z,5.43
2019-02-27T22:28:54.435Z,5.37
2019-02-27T22:31:23.042Z,5.33
2019-02-27T22:33:53.150Z,6.67
2019-02-27T22:36:20.680Z,4.57
2019-02-27T22:39:39.180Z,5.83
2019-02-27T22:44:43.095Z,4.77
2019-02-27T22:49:58.132Z,4.23
2019-02-27T22:52:25.565Z,6.17
2019-02-27T22:54:53.046Z,5.07
2019-02-27T22:57:22.936Z,4.37
2019-02-27T22:59:51.812Z,5.97
2019-02-27T23:02:21.619Z,4.70
2019-02-27T23:04:49.166Z,4.83
2019-02-27T23:07:20.522Z,4.13
2019-02-27T23:09:45.924Z,5.73
2019-02-27T23:12:13.392Z,4.23
2019-02-27T23:14:40.775Z,5.03
2019-02-27T23:17:08.250Z,3.57
2019-02-27T23:19:35.767Z,4.07
2019-02-27T23:22:04.155Z,4.83
2019-02-27T23:24:31.726Z,4.53
2019-02-27T23:26:59.163Z,3.70
2019-02-27T23:29:26.522Z,4.57
2019-02-27T23:31:54.810Z,5.57
2019-02-27T23:34:23.257Z,4.50
2019-02-27T23:36:55.626Z,4.57
2019-02-27T23:39:19.914Z,4.50
2019-02-27T23:41:47.297Z,3.33
2019-02-27T23:44:14.757Z,4.97
2019-02-27T23:46:48.780Z,3.50
2019-02-27T23:49:11.379Z,4.07
2019-02-27T23:51:38.934Z,3.57
2019-02-27T23:54:06.397Z,3.40
2019-02-27T23:56:33.954Z,4.40
2019-02-27T23:59:02.622Z,3.33
